createdAt,value
2023-05-12T02:53:21.884Z,20.73
2023-05-12T02:54:24.130Z,20.72
2023-05-12T02:55:27.248Z,20.70
2023-05-12T02:56:30.468Z,20.77
2023-05-12T02:57:34.176Z,20.82
2023-05-12T02:58:36.860Z,21.06
2023-05-12T02:59:39.215Z,21.40
2023-05-12T03:00:41.191Z,21.72
2023-05-12T03:01:43.355Z,22.04
2023-05-12T03:02:45.556Z,22.12
2023-05-12T03:03:47.625Z,22.08
2023-05-12T03:04:51.001Z,22.52
2023-05-12T03:05:53.864Z,22.58
2023-05-12T03:06:57.323Z,22.56
2023-05-12T03:07:59.580Z,22.54
2023-05-12T03:09:01.469Z,22.41
2023-05-12T03:10:05.209Z,22.27
2023-05-12T03:11:07.286Z,21.73
2023-05-12T03:12:10.095Z,20.94
2023-05-12T03:13:12.198Z,20.18
2023-05-12T03:14:14.246Z,19.55
2023-05-12T03:15:16.748Z,19.48
2023-05-12T03:16:19.744Z,19.06
2023-05-12T03:17:22.681Z,18.67
2023-05-12T03:18:25.362Z,18.48
2023-05-12T03:19:30.586Z,18.20
2023-05-12T03:20:33.314Z,17.82
2023-05-12T03:21:35.256Z,17.70
2023-05-12T03:22:37.362Z,17.56
2023-05-12T03:23:39.486Z,17.44
2023-05-12T03:24:46.620Z,17.21
2023-05-12T03:25:48.618Z,17.05
2023-05-12T03:26:50.525Z,16.93
2023-05-12T03:27:52.732Z,16.82
2023-05-12T03:28:54.990Z,16.54
2023-05-12T03:30:02.257Z,16.49
2023-05-12T03:31:05.658Z,16.49
2023-05-12T03:32:09.217Z,16.57
2023-05-12T03:33:11.297Z,16.29
2023-05-12T03:34:13.843Z,15.79
2023-05-12T03:52:58.526Z,22.43
2023-05-12T03:54:00.470Z,21.92
2023-05-12T03:55:02.571Z,22.07
2023-05-12T03:56:05.731Z,23.02
2023-05-12T03:57:08.313Z,23.06
2023-05-12T03:58:10.687Z,23.05
2023-05-12T03:59:12.741Z,22.46
2023-05-12T04:00:16.771Z,22.17
2023-05-12T04:01:20.139Z,22.08
2023-05-12T04:02:22.199Z,22.10
2023-05-12T04:03:24.411Z,21.72
2023-05-12T04:04:26.590Z,21.46
2023-05-12T04:05:28.718Z,21.01
2023-05-12T04:06:31.534Z,21.13
2023-05-12T04:07:33.855Z,21.00
2023-05-12T04:08:35.904Z,21.33
2023-05-12T04:09:38.496Z,22.57
2023-05-12T04:10:42.628Z,22.11
2023-05-12T04:11:44.749Z,22.71
2023-05-12T04:12:46.699Z,23.38
2023-05-12T04:13:49.510Z,23.93
2023-05-12T04:14:52.841Z,23.37
2023-05-12T04:15:59.517Z,22.96
2023-05-12T04:17:01.748Z,22.77
2023-05-12T04:18:04.231Z,22.86
2023-05-12T04:19:06.302Z,22.50
2023-05-12T04:20:14.849Z,22.53
2023-05-12T04:21:17.080Z,22.01
2023-05-12T04:22:19.448Z,22.12
2023-05-12T04:23:21.703Z,22.18
2023-05-12T04:24:25.564Z,22.85
2023-05-12T04:25:27.854Z,22.37
2023-05-12T04:26:32.502Z,22.22
2023-05-12T04:27:35.051Z,22.06
2023-05-12T04:28:37.318Z,22.29
2023-05-12T04:29:39.170Z,21.61
2023-05-12T04:30:42.867Z,21.19
2023-05-12T04:31:45.692Z,22.83
2023-05-12T04:32:48.918Z,22.24
2023-05-12T04:33:52.142Z,21.61
2023-05-12T04:34:57.011Z,21.09
2023-05-12T04:36:15.744Z,22.44
2023-05-12T04:37:18.925Z,22.05
2023-05-12T04:38:21.220Z,21.29
2023-05-12T04:39:24.449Z,21.04
2023-05-12T04:40:52.481Z,20.57
2023-05-12T04:41:57.516Z,20.64
2023-05-12T04:43:01.844Z,20.57
2023-05-12T04:44:07.875Z,20.60
2023-05-12T04:45:12.678Z,20.99
2023-05-12T04:46:14.796Z,20.91
2023-05-12T04:47:16.786Z,21.07
2023-05-12T04:48:18.729Z,20.84
2023-05-12T04:49:20.597Z,20.73
2023-05-12T04:50:24.529Z,21.23
2023-05-12T04:51:26.399Z,20.83
2023-05-12T04:52:28.690Z,21.07
2023-05-12T04:53:34.651Z,20.92
2023-05-12T04:54:36.830Z,21.17
2023-05-12T04:55:39.340Z,21.11
2023-05-12T04:56:41.246Z,21.30
2023-05-12T04:58:04.645Z,21.49
2023-05-12T04:59:06.836Z,22.24
2023-05-12T05:00:10.683Z,23.14
2023-05-12T05:01:14.088Z,22.92
2023-05-12T05:02:16.330Z,22.93
2023-05-12T05:03:19.019Z,24.78
2023-05-12T05:04:21.007Z,25.70
2023-05-12T05:06:39.660Z,26.25
2023-05-12T05:07:54.258Z,27.31
2023-05-12T05:08:56.424Z,27.47
2023-05-12T05:10:00.135Z,28.56
2023-05-12T05:11:07.977Z,28.56
2023-05-12T05:12:11.551Z,28.80
2023-05-12T05:13:14.194Z,29.21
2023-05-12T05:14:17.165Z,28.90
2023-05-12T05:15:20.121Z,28.91
2023-05-12T05:18:30.863Z,27.79
2023-05-12T05:19:47.734Z,28.39
2023-05-12T05:21:25.442Z,28.15
2023-05-12T05:22:51.473Z,27.58
2023-05-12T05:24:03.072Z,28.45
2023-05-12T05:25:11.342Z,27.86
2023-05-12T05:27:43.306Z,29.09
2023-05-12T05:28:51.097Z,28.05
2023-05-12T05:30:14.302Z,28.86
2023-05-12T05:31:42.176Z,30.28
2023-05-12T05:32:56.895Z,29.60
2023-05-12T05:34:04.738Z,30.08
2023-05-12T05:35:17.704Z,30.50
2023-05-12T05:36:34.092Z,30.96
2023-05-12T05:37:43.784Z,31.65
2023-05-12T05:38:48.731Z,31.84
2023-05-12T05:39:55.706Z,32.64
2023-05-12T05:41:05.637Z,31.42
2023-05-12T05:42:39.378Z,30.92
2023-05-12T05:43:55.342Z,31.62
2023-05-12T05:45:06.760Z,31.71
2023-05-12T05:46:35.711Z,32.64
2023-05-12T05:47:46.454Z,32.04
2023-05-12T05:48:49.139Z,32.21
2023-05-12T05:49:56.134Z,32.06
2023-05-12T05:51:02.740Z,31.92
2023-05-12T05:52:34.512Z,31.99
2023-05-12T05:53:40.424Z,32.07
2023-05-12T05:54:54.589Z,32.97
2023-05-12T05:56:00.208Z,32.58
2023-05-12T05:57:03.433Z,32.11
2023-05-12T05:58:06.489Z,31.71
2023-05-12T05:59:09.886Z,32.45
2023-05-12T06:00:16.847Z,32.30
2023-05-12T06:01:22.681Z,30.93
2023-05-12T06:02:24.896Z,30.38
2023-05-12T06:03:27.377Z,31.06
2023-05-12T06:04:30.032Z,30.03
2023-05-12T06:05:33.639Z,30.73
2023-05-12T06:06:35.695Z,29.47
2023-05-12T06:07:38.577Z,30.60
2023-05-12T06:08:40.642Z,31.51
2023-05-12T06:09:42.821Z,31.25
2023-05-12T06:10:46.075Z,32.14
2023-05-12T06:11:47.951Z,32.48
2023-05-12T06:12:50.949Z,32.61
2023-05-12T06:13:53.038Z,32.05
2023-05-12T06:14:54.991Z,32.79
2023-05-12T06:15:58.020Z,32.51
2023-05-12T06:16:59.823Z,32.78
2023-05-12T06:18:04.209Z,33.42
2023-05-12T06:19:06.338Z,33.97
2023-05-12T06:20:10.720Z,31.62
2023-05-12T06:21:16.186Z,31.70
2023-05-12T06:22:19.794Z,31.44
2023-05-12T06:23:26.631Z,30.89
2023-05-12T06:24:28.943Z,31.48
2023-05-12T06:25:57.594Z,32.04
2023-05-12T06:27:03.211Z,30.83
2023-05-12T06:28:05.720Z,33.16
2023-05-12T06:29:11.023Z,32.29
2023-05-12T06:30:16.001Z,33.44
2023-05-12T06:31:18.801Z,33.47
2023-05-12T06:32:23.040Z,32.73
2023-05-12T06:33:25.311Z,32.16
2023-05-12T06:34:29.129Z,32.68
2023-05-12T06:35:32.963Z,32.48
2023-05-12T06:36:35.332Z,33.21
2023-05-12T06:37:37.509Z,32.60
2023-05-12T06:38:40.155Z,32.06
2023-05-12T06:39:42.816Z,31.02
2023-05-12T06:40:48.431Z,30.24
2023-05-12T06:41:50.798Z,32.48
2023-05-12T06:42:56.642Z,31.67
2023-05-12T06:44:03.212Z,32.59
2023-05-12T06:45:05.978Z,32.35
2023-05-12T06:46:10.553Z,32.19
2023-05-12T06:47:12.734Z,33.72
2023-05-12T06:48:14.910Z,33.59
2023-05-12T06:49:17.175Z,34.33
2023-05-12T06:50:24.523Z,34.48
2023-05-12T06:51:28.502Z,33.95
2023-05-12T06:52:31.036Z,32.57
2023-05-12T06:53:37.717Z,32.74
2023-05-12T06:54:40.114Z,33.10
2023-05-12T06:55:44.525Z,33.07
2023-05-12T06:56:46.845Z,33.16
2023-05-12T06:57:51.774Z,32.21
2023-05-12T06:58:54.499Z,32.72
2023-05-12T06:59:56.755Z,32.42
2023-05-12T07:01:26.154Z,32.48
2023-05-12T07:02:28.685Z,32.26
2023-05-12T07:03:34.125Z,32.43
2023-05-12T07:04:37.567Z,34.15
2023-05-12T07:05:41.788Z,33.74
2023-05-12T07:06:43.996Z,31.84
2023-05-12T07:07:46.182Z,33.31
2023-05-12T07:08:48.854Z,32.39
2023-05-12T07:09:51.279Z,31.44
2023-05-12T07:10:54.784Z,31.49
2023-05-12T07:11:56.951Z,32.58
2023-05-12T07:12:59.190Z,31.81
2023-05-12T07:14:01.807Z,32.71
2023-05-12T07:15:06.692Z,32.17
2023-05-12T07:16:09.659Z,31.25
2023-05-12T07:17:11.829Z,32.66
2023-05-12T07:18:13.997Z,32.09
2023-05-12T07:19:16.090Z,31.63
2023-05-12T07:20:18.245Z,32.55
2023-05-12T07:21:24.568Z,32.05
2023-05-12T07:22:26.689Z,32.79
2023-05-12T07:23:28.947Z,33.17
2023-05-12T07:24:31.148Z,32.94
2023-05-12T07:25:39.713Z,32.87
2023-05-12T07:26:41.884Z,32.15
2023-05-12T07:27:44.394Z,32.00
2023-05-12T07:28:48.956Z,31.81
2023-05-12T07:29:51.059Z,32.13
2023-05-12T07:30:53.463Z,31.32
2023-05-12T07:31:56.049Z,31.04
2023-05-12T07:32:58.669Z,28.92
2023-05-12T07:34:02.336Z,28.22
2023-05-12T07:35:04.772Z,29.11
2023-05-12T07:36:12.939Z,28.51
2023-05-12T07:37:15.166Z,27.62
2023-05-12T07:38:20.153Z,27.60
2023-05-12T07:39:25.208Z,29.07
2023-05-12T07:40:31.033Z,30.38
2023-05-12T07:41:34.487Z,31.19
2023-05-12T07:42:37.400Z,31.61
2023-05-12T07:43:39.337Z,31.90
2023-05-12T07:44:41.798Z,31.76
2023-05-12T07:45:46.924Z,31.94
2023-05-12T07:46:49.909Z,31.86
2023-05-12T07:47:53.612Z,32.67
2023-05-12T07:48:57.783Z,32.28
2023-05-12T07:50:01.297Z,32.59
2023-05-12T07:51:06.374Z,31.85
2023-05-12T07:52:12.948Z,31.99
2023-05-12T07:53:15.153Z,32.30
2023-05-12T07:54:17.257Z,32.58
2023-05-12T07:55:22.058Z,33.11
2023-05-12T07:56:26.634Z,33.14
2023-05-12T07:57:29.370Z,34.22
2023-05-12T07:58:31.693Z,33.33
2023-05-12T07:59:33.788Z,32.30
2023-05-12T08:00:36.279Z,32.17
2023-05-12T08:01:38.671Z,32.85
2023-05-12T08:02:42.153Z,31.51
2023-05-12T08:03:45.180Z,31.49
2023-05-12T08:04:47.259Z,31.90
2023-05-12T08:05:50.950Z,31.55
2023-05-12T08:06:53.488Z,31.13
2023-05-12T08:07:55.543Z,30.61
2023-05-12T08:08:59.075Z,29.08
2023-05-12T08:10:01.245Z,29.61
2023-05-12T08:11:05.302Z,27.89
2023-05-12T08:12:07.696Z,27.77
2023-05-12T08:13:10.313Z,28.13
2023-05-12T08:14:13.424Z,28.36
2023-05-12T08:15:15.662Z,28.66
2023-05-12T08:16:23.420Z,28.37
2023-05-12T08:17:28.487Z,28.87
2023-05-12T08:18:31.482Z,28.00
2023-05-12T08:19:33.680Z,28.69
2023-05-12T08:20:36.182Z,27.97
2023-05-12T08:21:38.222Z,28.29
2023-05-12T08:22:40.286Z,28.54
2023-05-12T08:23:45.256Z,28.75
2023-05-12T08:24:47.317Z,28.89
2023-05-12T08:25:50.739Z,29.16
2023-05-12T08:26:52.672Z,28.57
2023-05-12T08:27:56.564Z,28.81
2023-05-12T08:28:58.799Z,28.24
2023-05-12T08:30:01.064Z,28.84
2023-05-12T08:31:04.947Z,28.90
2023-05-12T08:32:07.670Z,28.04
2023-05-12T08:33:09.808Z,27.04
2023-05-12T08:34:12.069Z,28.08
2023-05-12T08:35:14.169Z,28.21
2023-05-12T08:36:16.619Z,27.77
2023-05-12T08:37:18.827Z,27.18
2023-05-12T08:38:22.179Z,26.96
2023-05-12T08:39:24.622Z,27.22
2023-05-12T08:40:33.597Z,28.29
2023-05-12T08:42:13.795Z,27.02
2023-05-12T08:43:26.506Z,28.00
2023-05-12T08:44:29.241Z,28.17
2023-05-12T08:45:31.902Z,27.65
2023-05-12T08:46:35.330Z,27.83
2023-05-12T08:48:58.341Z,26.64
2023-05-12T08:50:05.403Z,26.62
2023-05-12T08:51:13.236Z,26.35
2023-05-12T08:52:21.832Z,26.36
2023-05-12T08:53:26.063Z,26.52
2023-05-12T08:54:29.218Z,26.49
2023-05-12T08:55:34.144Z,26.36
2023-05-12T08:57:45.834Z,27.25
2023-05-12T08:58:48.667Z,27.59
2023-05-12T08:59:56.295Z,27.69
2023-05-12T09:01:01.596Z,27.82
2023-05-12T09:02:08.356Z,27.81
2023-05-12T09:03:13.299Z,27.60
2023-05-12T09:04:18.142Z,26.83
2023-05-12T09:05:20.880Z,26.43
2023-05-12T09:06:23.632Z,26.46
2023-05-12T09:07:27.420Z,26.16
2023-05-12T09:08:34.220Z,26.08
2023-05-12T09:09:38.301Z,26.24
2023-05-12T09:10:40.790Z,26.51
2023-05-12T09:11:53.660Z,26.93
2023-05-12T09:13:03.093Z,26.88
2023-05-12T09:14:13.721Z,26.74
2023-05-12T09:15:23.612Z,26.33
2023-05-12T09:16:33.602Z,26.17
2023-05-12T09:17:36.296Z,25.94
2023-05-12T09:18:51.179Z,25.43
2023-05-12T09:19:53.080Z,25.64
2023-05-12T09:20:55.222Z,26.03
2023-05-12T09:21:58.941Z,25.73
2023-05-12T09:23:13.341Z,25.41
2023-05-12T09:24:15.828Z,25.74
2023-05-12T09:25:20.116Z,25.67
2023-05-12T09:26:24.264Z,24.90
2023-05-12T09:27:30.731Z,25.01
2023-05-12T09:28:39.039Z,25.08
2023-05-12T09:29:59.359Z,24.99
2023-05-12T09:31:04.404Z,25.13
2023-05-12T09:32:06.621Z,25.21
2023-05-12T09:33:13.627Z,24.94
2023-05-12T09:34:15.677Z,24.97
2023-05-12T09:35:18.230Z,24.99
2023-05-12T09:36:24.435Z,25.04
2023-05-12T09:37:32.691Z,24.89
2023-05-12T09:38:34.933Z,24.71
2023-05-12T09:39:37.063Z,24.89
2023-05-12T09:40:39.599Z,24.24
2023-05-12T09:41:43.673Z,24.29
2023-05-12T09:42:47.867Z,24.02
2023-05-12T09:43:55.661Z,23.94
2023-05-12T09:45:06.052Z,23.54
2023-05-12T09:46:10.034Z,23.76
2023-05-12T09:47:11.978Z,23.52
2023-05-12T09:48:15.003Z,23.84
2023-05-12T09:49:23.107Z,23.88
2023-05-12T09:50:26.493Z,23.74
2023-05-12T09:51:31.390Z,23.66
2023-05-12T09:52:39.082Z,23.61
2023-05-12T09:53:43.193Z,23.38
2023-05-12T09:54:45.246Z,23.55
2023-05-12T09:55:49.251Z,23.62
2023-05-12T09:56:53.136Z,23.88
2023-05-12T09:58:22.550Z,24.00
2023-05-12T09:59:28.928Z,24.04
2023-05-12T10:00:41.193Z,24.00
2023-05-12T10:01:56.880Z,23.93
2023-05-12T10:02:59.258Z,24.40
2023-05-12T10:04:02.681Z,24.48
2023-05-12T10:05:08.562Z,24.65
2023-05-12T10:06:14.712Z,24.25
2023-05-12T10:07:17.563Z,24.14
2023-05-12T10:08:30.708Z,24.32
2023-05-12T10:09:36.487Z,23.83
2023-05-12T10:10:39.014Z,23.90
2023-05-12T10:11:47.926Z,24.04
2023-05-12T10:12:50.416Z,23.85
2023-05-12T10:13:53.818Z,23.89
2023-05-12T10:14:57.361Z,24.08
2023-05-12T10:16:01.094Z,24.05
2023-05-12T10:17:04.164Z,24.44
2023-05-12T10:18:07.347Z,24.48
2023-05-12T10:19:11.166Z,24.65
2023-05-12T10:20:15.513Z,24.23
2023-05-12T10:21:18.288Z,24.06
2023-05-12T10:22:22.390Z,24.07
2023-05-12T10:23:25.386Z,24.25
2023-05-12T10:24:28.489Z,24.15
2023-05-12T10:25:31.274Z,24.21
2023-05-12T10:26:37.077Z,24.13
2023-05-12T10:27:39.668Z,24.09
2023-05-12T10:28:43.086Z,24.64
2023-05-12T10:29:47.072Z,24.73
2023-05-12T10:30:50.510Z,24.39
2023-05-12T10:31:52.925Z,23.98
2023-05-12T10:32:56.656Z,24.10
2023-05-12T10:33:59.909Z,24.38
2023-05-12T10:35:10.346Z,23.98
2023-05-12T10:36:21.387Z,23.77
2023-05-12T10:37:24.060Z,23.52
2023-05-12T10:38:26.634Z,23.67
2023-05-12T10:39:30.973Z,23.88
2023-05-12T10:40:33.101Z,23.89
2023-05-12T10:41:36.038Z,24.08
2023-05-12T10:42:44.134Z,24.24
2023-05-12T10:43:50.901Z,24.24
2023-05-12T10:44:54.286Z,24.08
2023-05-12T10:46:32.573Z,24.06
2023-05-12T10:47:38.887Z,24.34
2023-05-12T10:48:55.912Z,24.29
2023-05-12T10:49:59.994Z,24.05
2023-05-12T10:51:11.538Z,23.95
2023-05-12T10:52:19.966Z,23.99
2023-05-12T10:53:38.051Z,24.13
2023-05-12T10:54:47.745Z,24.64
2023-05-12T10:55:52.439Z,24.89
2023-05-12T10:57:00.081Z,24.89
2023-05-12T10:58:12.552Z,24.73
2023-05-12T10:59:24.305Z,24.16
2023-05-12T11:00:29.086Z,24.18
2023-05-12T11:02:00.247Z,23.84
2023-05-12T11:03:09.955Z,24.08
2023-05-12T11:04:20.331Z,23.74
2023-05-12T11:05:22.682Z,23.56
2023-05-12T11:06:30.686Z,23.95
2023-05-12T11:07:35.268Z,24.04
2023-05-12T11:08:38.098Z,24.03
2023-05-12T11:09:53.109Z,23.99
2023-05-12T11:10:59.615Z,23.68
2023-05-12T11:12:08.846Z,23.70
2023-05-12T11:13:12.658Z,23.48
2023-05-12T11:14:14.775Z,23.74
2023-05-12T11:15:18.087Z,23.62
2023-05-12T11:16:22.558Z,23.34
2023-05-12T11:17:24.896Z,23.47
2023-05-12T11:18:27.239Z,23.46
2023-05-12T11:19:29.706Z,23.75
2023-05-12T11:20:33.454Z,23.78
2023-05-12T11:21:38.867Z,23.67
2023-05-12T11:22:42.903Z,24.05
2023-05-12T11:23:51.589Z,23.97
2023-05-12T11:24:53.780Z,24.13
2023-05-12T11:25:57.263Z,24.17
2023-05-12T11:26:59.826Z,24.18
2023-05-12T11:28:04.662Z,24.20
2023-05-12T11:29:06.759Z,24.21
2023-05-12T11:30:09.351Z,24.41
2023-05-12T11:31:22.354Z,24.42
2023-05-12T11:32:27.022Z,24.32
2023-05-12T11:33:29.119Z,24.47
2023-05-12T11:34:31.519Z,24.71
2023-05-12T11:35:36.781Z,24.49
2023-05-12T11:36:40.853Z,24.60
2023-05-12T11:37:44.419Z,24.69
2023-05-12T11:38:50.973Z,24.61
2023-05-12T11:39:55.939Z,24.45
2023-05-12T11:40:57.957Z,24.55
2023-05-12T11:42:15.645Z,24.79
2023-05-12T11:43:22.961Z,24.55
2023-05-12T11:44:26.372Z,24.60
2023-05-12T11:45:30.634Z,24.25
2023-05-12T11:46:34.170Z,24.28
2023-05-12T11:47:36.106Z,24.46
2023-05-12T11:48:38.235Z,24.48
2023-05-12T11:50:09.523Z,24.26
2023-05-12T11:51:12.507Z,24.10
2023-05-12T11:52:15.438Z,24.13
2023-05-12T11:53:19.166Z,23.98
2023-05-12T11:54:21.460Z,24.04
2023-05-12T11:55:25.455Z,23.92
2023-05-12T11:56:32.876Z,23.76
2023-05-12T11:57:39.687Z,23.69
2023-05-12T11:58:53.334Z,23.60
2023-05-12T12:00:00.807Z,23.45
2023-05-12T12:01:11.481Z,23.52
2023-05-12T12:02:21.726Z,23.45
2023-05-12T12:03:25.253Z,23.69
2023-05-12T12:04:37.285Z,23.76
2023-05-12T12:05:41.674Z,23.94
2023-05-12T12:06:45.210Z,23.67
2023-05-12T12:07:47.309Z,23.33
2023-05-12T12:08:57.476Z,23.71
2023-05-12T12:10:11.927Z,23.93
2023-05-12T12:11:15.616Z,23.83
2023-05-12T12:12:18.022Z,23.76
2023-05-12T12:13:24.572Z,23.80
2023-05-12T12:14:26.814Z,23.80
2023-05-12T12:15:30.665Z,23.80
2023-05-12T12:16:33.767Z,23.89
2023-05-12T12:17:36.272Z,23.73
2023-05-12T12:18:38.883Z,23.56
2023-05-12T12:19:49.110Z,23.59
2023-05-12T12:20:51.796Z,23.41
2023-05-12T12:21:56.535Z,23.11
2023-05-12T12:22:58.538Z,23.30
2023-05-12T12:24:00.679Z,23.32
2023-05-12T12:25:04.044Z,23.35
2023-05-12T12:26:06.183Z,23.54
2023-05-12T12:27:10.640Z,23.60
2023-05-12T12:28:13.083Z,23.28
2023-05-12T12:29:15.396Z,23.41
2023-05-12T12:30:17.820Z,23.47
2023-05-12T12:31:19.857Z,23.44
2023-05-12T12:32:22.210Z,23.49
2023-05-12T12:33:24.353Z,23.63
2023-05-12T12:34:26.972Z,23.52
2023-05-12T12:35:29.019Z,23.37
2023-05-12T12:36:33.761Z,23.42
2023-05-12T12:37:35.748Z,23.49
2023-05-12T12:38:38.391Z,23.36
2023-05-12T12:39:40.788Z,23.54
2023-05-12T12:40:43.460Z,23.73
2023-05-12T12:41:51.237Z,23.75
2023-05-12T12:42:53.522Z,23.80
2023-05-12T12:43:57.075Z,23.84
2023-05-12T12:45:00.483Z,23.62
2023-05-12T12:46:02.517Z,23.52
2023-05-12T12:47:06.844Z,23.74
2023-05-12T12:48:10.471Z,23.62
2023-05-12T12:49:12.630Z,23.74
2023-05-12T12:50:15.071Z,23.73
2023-05-12T12:51:17.498Z,23.69
2023-05-12T12:52:20.536Z,23.66
2023-05-12T12:53:24.409Z,23.74
2023-05-12T12:54:29.749Z,23.66
2023-05-12T12:55:32.125Z,23.85
2023-05-12T12:56:34.526Z,23.71
2023-05-12T12:57:38.048Z,23.68
2023-05-12T12:58:40.141Z,23.76
2023-05-12T12:59:43.392Z,23.79
2023-05-12T13:00:45.626Z,23.79
2023-05-12T13:01:49.148Z,24.06
2023-05-12T13:02:52.409Z,23.92
2023-05-12T13:03:54.459Z,24.02
2023-05-12T13:04:56.488Z,24.07
2023-05-12T13:06:00.999Z,24.04
2023-05-12T13:07:03.321Z,24.04
2023-05-12T13:08:07.809Z,23.91
2023-05-12T13:09:10.846Z,23.86
2023-05-12T13:10:13.940Z,23.95
2023-05-12T13:11:17.533Z,23.90
2023-05-12T13:12:21.142Z,24.07
2023-05-12T13:13:24.599Z,24.00
2023-05-12T13:14:26.867Z,23.91
2023-05-12T13:15:29.581Z,23.91
2023-05-12T13:16:31.892Z,23.74
2023-05-12T13:17:34.061Z,23.77
2023-05-12T13:18:36.172Z,23.77
2023-05-12T13:19:38.662Z,23.85
2023-05-12T13:20:41.146Z,23.82
2023-05-12T13:21:43.508Z,23.86
2023-05-12T13:22:45.952Z,23.76
2023-05-12T13:23:48.240Z,23.61
2023-05-12T13:24:50.217Z,23.54
2023-05-12T13:25:52.435Z,23.43
2023-05-12T13:26:54.727Z,23.36
2023-05-12T13:27:56.758Z,23.36
2023-05-12T13:28:58.904Z,23.43
2023-05-12T13:30:00.944Z,23.41
2023-05-12T13:31:03.169Z,23.44
2023-05-12T13:32:10.294Z,23.53
2023-05-12T13:33:15.474Z,23.52
2023-05-12T13:34:17.601Z,23.47
2023-05-12T13:35:19.942Z,23.31
2023-05-12T13:36:22.150Z,23.26
2023-05-12T13:37:25.370Z,23.24
2023-05-12T13:38:27.648Z,23.22
2023-05-12T13:39:31.387Z,23.05
2023-05-12T13:40:41.611Z,23.24
2023-05-12T13:41:45.761Z,23.11
2023-05-12T13:42:48.152Z,23.07
2023-05-12T13:43:50.386Z,23.13
2023-05-12T13:44:52.750Z,23.19
2023-05-12T13:45:57.706Z,22.93
2023-05-12T13:47:01.383Z,23.02
2023-05-12T13:48:03.959Z,23.12
2023-05-12T13:49:05.896Z,23.14
2023-05-12T13:50:11.124Z,23.00
2023-05-12T13:51:13.114Z,23.12
2023-05-12T13:52:19.715Z,23.20
2023-05-12T13:53:21.782Z,23.15
2023-05-12T13:54:27.685Z,23.20
2023-05-12T13:55:29.829Z,23.26
2023-05-12T13:56:36.214Z,23.21
2023-05-12T13:57:39.925Z,23.30
2023-05-12T13:58:42.080Z,23.30
2023-05-12T13:59:44.120Z,23.37
2023-05-12T14:00:48.018Z,23.27
2023-05-12T14:01:51.836Z,23.27
2023-05-12T14:02:53.842Z,23.31
2023-05-12T14:03:56.140Z,23.17
2023-05-12T14:04:58.265Z,23.22
2023-05-12T14:06:00.932Z,23.19
2023-05-12T14:07:08.796Z,23.09
2023-05-12T14:08:11.876Z,23.02
2023-05-12T14:09:14.816Z,23.08
2023-05-12T14:10:16.856Z,23.03
2023-05-12T14:11:19.134Z,23.05
2023-05-12T14:12:23.648Z,22.97
2023-05-12T14:13:26.433Z,22.99
2023-05-12T14:14:31.400Z,23.12
2023-05-12T14:15:44.726Z,23.11
2023-05-12T14:16:52.788Z,23.16
2023-05-12T14:17:55.182Z,23.24
2023-05-12T14:18:57.269Z,23.23
2023-05-12T14:20:02.435Z,23.17
2023-05-12T14:21:08.694Z,23.13
2023-05-12T14:22:41.962Z,23.12
2023-05-12T14:23:44.092Z,23.11
2023-05-12T14:24:46.081Z,23.04
2023-05-12T14:25:51.010Z,22.98
2023-05-12T14:26:54.898Z,22.92
2023-05-12T14:27:57.444Z,23.03
2023-05-12T14:28:59.721Z,23.08
2023-05-12T14:30:05.211Z,23.03
2023-05-12T14:31:07.540Z,23.03
2023-05-12T14:32:09.892Z,23.14
2023-05-12T14:33:12.047Z,23.07
2023-05-12T14:34:16.256Z,23.13
2023-05-12T14:35:18.577Z,23.21
2023-05-12T14:36:23.361Z,23.23
2023-05-12T14:37:26.711Z,23.10
2023-05-12T14:38:29.833Z,23.07
2023-05-12T14:39:36.242Z,23.04
2023-05-12T14:40:43.821Z,23.08
2023-05-12T14:41:49.834Z,23.02
2023-05-12T14:42:53.278Z,23.03
2023-05-12T14:43:55.310Z,23.02
2023-05-12T14:45:02.624Z,22.94
2023-05-12T14:46:08.727Z,23.03
2023-05-12T14:47:20.538Z,23.11
2023-05-12T14:48:25.350Z,23.24
2023-05-12T14:49:27.632Z,23.23
2023-05-12T14:50:30.137Z,23.33
2023-05-12T14:51:32.718Z,23.31
2023-05-12T14:52:38.914Z,23.17
2023-05-12T14:53:41.352Z,23.13
2023-05-12T14:56:43.301Z,23.13
2023-05-12T14:57:46.452Z,23.15
2023-05-12T14:58:49.157Z,23.14
2023-05-12T14:59:54.598Z,23.17
2023-05-12T15:00:57.244Z,23.27
2023-05-12T15:01:59.696Z,23.08
2023-05-12T15:03:02.614Z,23.19
2023-05-12T15:04:04.589Z,23.15
2023-05-12T15:05:07.753Z,23.12
2023-05-12T15:06:09.803Z,23.12
2023-05-12T15:07:12.390Z,23.09
2023-05-12T15:08:14.394Z,23.12
2023-05-12T15:09:17.336Z,23.24
2023-05-12T15:10:19.576Z,23.22
2023-05-12T15:11:21.985Z,23.00
2023-05-12T15:12:24.010Z,23.02
2023-05-12T15:13:26.020Z,23.09
2023-05-12T15:14:29.242Z,23.10
2023-05-12T15:15:33.303Z,23.10
2023-05-12T15:16:35.352Z,23.14
2023-05-12T15:17:37.904Z,23.05
2023-05-12T15:18:39.775Z,23.04
2023-05-12T15:19:42.314Z,23.01
2023-05-12T15:20:44.147Z,23.02
2023-05-12T15:21:46.056Z,23.01
2023-05-12T15:22:48.257Z,22.95
2023-05-12T15:23:50.074Z,22.74
2023-05-12T15:24:54.790Z,22.85
2023-05-12T15:25:58.003Z,22.85
2023-05-12T15:27:02.554Z,22.90
2023-05-12T15:28:04.826Z,22.84
2023-05-12T15:29:07.430Z,22.83
2023-05-12T15:30:10.186Z,22.83
2023-05-12T15:31:13.497Z,22.77
2023-05-12T15:32:15.767Z,22.67
2023-05-12T15:33:17.577Z,22.64
2023-05-12T15:34:19.495Z,22.68
2023-05-12T15:35:21.617Z,22.63
2023-05-12T15:36:23.971Z,22.61
2023-05-12T15:37:28.130Z,22.60
2023-05-12T15:38:30.101Z,22.57
2023-05-12T15:39:32.033Z,22.50
2023-05-12T15:40:34.480Z,22.44
2023-05-12T15:41:39.018Z,22.38
2023-05-12T15:42:45.721Z,22.29
2023-05-12T15:43:47.637Z,22.31
2023-05-12T15:44:49.545Z,22.29
2023-05-12T15:45:51.509Z,22.31
2023-05-12T15:46:53.465Z,22.39
2023-05-12T15:47:57.357Z,22.33
2023-05-12T15:49:04.693Z,22.31
2023-05-12T15:50:07.709Z,22.29
2023-05-12T15:51:09.811Z,22.33
2023-05-12T15:52:12.291Z,22.28
2023-05-12T15:53:14.119Z,22.30
2023-05-12T15:54:16.280Z,22.34
2023-05-12T15:55:19.496Z,22.32
2023-05-12T15:56:23.678Z,22.36
2023-05-12T15:57:25.726Z,22.32
2023-05-12T15:58:28.624Z,22.22
2023-05-12T15:59:30.858Z,22.25
2023-05-12T16:00:32.744Z,22.22
2023-05-12T16:01:34.665Z,22.20
2023-05-12T16:02:37.896Z,22.26
2023-05-12T16:03:40.782Z,22.31
2023-05-12T16:04:42.898Z,22.35
2023-05-12T16:05:45.001Z,22.37
2023-05-12T16:06:47.241Z,22.36
2023-05-12T16:07:50.403Z,22.31
2023-05-12T16:08:53.243Z,22.35
2023-05-12T16:09:55.452Z,22.25
2023-05-12T16:10:58.622Z,22.31
2023-05-12T16:12:01.266Z,22.30
2023-05-12T16:13:05.263Z,22.31
2023-05-12T16:14:08.645Z,22.22
2023-05-12T16:15:11.494Z,22.25
2023-05-12T16:16:14.904Z,22.23
2023-05-12T16:17:18.414Z,22.20
2023-05-12T16:18:20.617Z,22.17
2023-05-12T16:19:22.829Z,22.16
2023-05-12T16:20:24.763Z,22.16
2023-05-12T16:21:26.932Z,22.11
2023-05-12T16:22:29.592Z,22.07
2023-05-12T16:23:32.078Z,22.04
2023-05-12T16:24:34.730Z,22.07
2023-05-12T16:25:37.612Z,21.97
2023-05-12T16:26:41.338Z,21.98
2023-05-12T16:27:44.167Z,22.00
2023-05-12T16:28:46.390Z,22.00
2023-05-12T16:29:56.649Z,21.99
2023-05-12T16:30:58.944Z,21.99
2023-05-12T16:32:01.757Z,21.96
2023-05-12T16:33:04.134Z,21.92
2023-05-12T16:34:06.435Z,21.87
2023-05-12T16:35:08.663Z,21.88
2023-05-12T16:36:10.601Z,21.86
2023-05-12T16:37:12.556Z,21.85
2023-05-12T16:38:14.642Z,21.84
2023-05-12T16:39:18.032Z,21.85
2023-05-12T16:40:20.918Z,21.85
2023-05-12T16:41:27.890Z,21.80
2023-05-12T16:42:32.078Z,21.77
2023-05-12T16:43:35.365Z,21.78
2023-05-12T16:44:37.419Z,21.74
2023-05-12T16:48:11.590Z,21.64
2023-05-12T16:49:17.098Z,21.61
2023-05-12T16:50:20.779Z,21.61
2023-05-12T16:51:26.884Z,21.58
2023-05-12T16:52:30.602Z,21.59
2023-05-12T16:53:34.710Z,21.59
2023-05-12T16:54:36.651Z,21.56
2023-05-12T16:55:38.757Z,21.55
2023-05-12T16:56:41.211Z,21.52
2023-05-12T16:57:43.785Z,21.47
2023-05-12T16:58:45.787Z,21.50
2023-05-12T16:59:50.514Z,21.46
2023-05-12T17:00:52.975Z,21.46
2023-05-12T17:01:54.953Z,21.47
2023-05-12T17:03:02.411Z,21.44
2023-05-12T17:04:06.969Z,21.37
2023-05-12T17:05:09.980Z,21.36
2023-05-12T17:06:17.377Z,21.30
2023-05-12T17:07:19.754Z,21.32
2023-05-12T17:08:27.047Z,21.25
2023-05-12T17:09:44.348Z,21.26
2023-05-12T17:11:00.945Z,21.20
2023-05-12T17:14:01.565Z,21.16
2023-05-12T17:16:34.166Z,21.06
2023-05-12T17:17:38.825Z,21.10
2023-05-12T17:19:54.343Z,21.04